Time;durP1;ratioP1;P1;durP2;ratioP2;P2;SDS_P1;SDS_P2;PMS_P1;PMS_P2;Temp;Humidity;BMP_temperature;BMP_pressure;BME280_temperature;BME280_humidity;BME280_pressure;Samples;Min_cycle;Max_cycle;Signal;HPM_P1;HPM_P2
2023/05/11 00:02:00;;;;;;;;;;;;;;;10.41;100.00;96115.34;4961447;28;19941;-87
2023/05/11 00:04:28;;;;;;;;;;;;;;;10.40;100.00;96112.88;4966175;28;20019;-86
2023/05/11 00:06:55;;;;;;;;;;;;;;;10.41;100.00;96111.81;4969180;28;19964;-87
2023/05/11 00:09:22;;;;;;;;;;;;;;;10.39;100.00;96117.44;4961357;28;19922;-85
2023/05/11 00:11:48;;;;;;;;;;;;;;;10.37;100.00;96103.38;4962415;28;19929;-87
2023/05/11 00:14:16;;;;;;;;;;;;;;;10.40;100.00;96113.69;4967053;28;19922;-86
2023/05/11 00:16:42;;;;;;;;;;;;;;;10.31;100.00;96114.28;4966873;28;19922;-87
2023/05/11 00:19:10;;;;;;;;;;;;;;;10.27;100.00;96111.25;4964501;28;19922;-86
2023/05/11 00:21:38;;;;;;;;;;;;;;;10.27;100.00;96108.53;4967455;28;19929;-86
2023/05/11 00:24:05;;;;;;;;;;;;;;;10.26;100.00;96098.81;4966270;28;19977;-88
2023/05/11 00:26:32;;;;;;;;;;;;;;;10.27;100.00;96097.75;4968238;28;19926;-87
2023/05/11 00:28:59;;;;;;;;;;;;;;;10.31;100.00;96096.22;4983087;28;19929;-87
2023/05/11 00:31:26;;;;;;;;;;;;;;;10.36;100.00;96090.94;4962562;28;19977;-86
2023/05/11 00:33:53;;;;;;;;;;;;;;;10.33;100.00;96090.56;4967464;28;19932;-87
2023/05/11 00:36:20;;;;;;;;;;;;;;;10.34;100.00;96093.06;4963650;28;19928;-87
2023/05/11 00:38:48;;;;;;;;;;;;;;;10.35;100.00;96089.31;4966399;28;19997;-86
2023/05/11 00:41:15;;;;;;;;;;;;;;;10.39;100.00;96095.03;4969227;28;19942;-86
2023/05/11 00:43:42;;;;;;;;;;;;;;;10.36;100.00;96085.53;4979545;28;19931;-87
2023/05/11 00:46:09;;;;;;;;;;;;;;;10.39;100.00;96085.06;4963589;28;19922;-88
2023/05/11 00:48:36;;;;;;;;;;;;;;;10.39;100.00;96079.66;4961018;28;19922;-86
2023/05/11 00:51:03;;;;;;;;;;;;;;;10.36;100.00;96088.25;4966740;28;19922;-85
2023/05/11 00:53:30;;;;;;;;;;;;;;;10.33;100.00;96090.56;4968458;28;19929;-86
2023/05/11 00:55:58;;;;;;;;;;;;;;;10.33;100.00;96085.19;4984074;28;19930;-84
2023/05/11 00:58:25;;;;;;;;;;;;;;;10.35;100.00;96083.09;4971444;28;19968;-86
2023/05/11 01:00:52;;;;;;;;;;;;;;;10.37;100.00;96081.78;4957831;28;19930;-88
2023/05/11 01:03:19;;;;;;;;;;;;;;;10.33;100.00;96075.22;4960741;28;19964;-88
2023/05/11 01:05:48;;;;;;;;;;;;;;;10.30;100.00;96083.75;4965355;28;19985;-86
2023/05/11 01:08:17;;;;;;;;;;;;;;;10.32;100.00;96084.38;4970325;28;20029;-87
2023/05/11 01:10:48;;;;;;;;;;;;;;;10.34;100.00;96082.25;4984108;28;19922;-86
2023/05/11 01:13:22;;;;;;;;;;;;;;;10.35;100.00;96086.59;4986959;28;19922;-87
2023/05/11 01:15:51;;;;;;;;;;;;;;;10.39;100.00;96085.06;4954450;28;19933;-87
2023/05/11 01:18:25;;;;;;;;;;;;;;;10.42;100.00;96084.59;4963093;28;19922;-88
2023/05/11 01:20:57;;;;;;;;;;;;;;;10.41;100.00;96076.72;4962512;28;20013;-86
2023/05/11 01:23:42;;;;;;;;;;;;;;;10.41;100.00;96076.72;4953911;28;19923;-86
2023/05/11 01:26:16;;;;;;;;;;;;;;;10.44;100.00;96085.19;4964849;28;19950;-85
2023/05/11 01:28:56;;;;;;;;;;;;;;;10.46;100.00;96083.06;4966767;28;19937;-87
2023/05/11 01:31:28;;;;;;;;;;;;;;;10.47;100.00;96078.47;4969901;28;19926;-87
2023/05/11 01:33:57;;;;;;;;;;;;;;;10.46;100.00;96080.34;4966092;28;19922;-87
2023/05/11 01:36:27;;;;;;;;;;;;;;;10.43;100.00;96078.16;4963900;28;19965;-86
2023/05/11 01:38:56;;;;;;;;;;;;;;;10.42;100.00;96083.78;4965768;28;19923;-88
2023/05/11 01:41:23;;;;;;;;;;;;;;;10.41;100.00;96074.84;4967885;28;19926;-87
2023/05/11 01:43:53;;;;;;;;;;;;;;;10.38;100.00;96069.91;4966966;28;19937;-86
2023/05/11 01:46:21;;;;;;;;;;;;;;;10.37;100.00;96065.59;4967196;28;19929;-88
2023/05/11 01:48:51;;;;;;;;;;;;;;;10.35;100.00;96073.09;4977290;28;19922;-87
2023/05/11 01:51:20;;;;;;;;;;;;;;;10.37;100.00;96080.97;4976854;28;20017;-87
2023/05/11 01:53:48;;;;;;;;;;;;;;;10.33;100.00;96075.22;4964816;28;19937;-87
2023/05/11 01:56:16;;;;;;;;;;;;;;;10.24;100.00;96068.53;4961491;28;19933;-86
2023/05/11 01:58:44;;;;;;;;;;;;;;;10.23;100.00;96070.41;4962370;28;19958;-87
2023/05/11 02:01:12;;;;;;;;;;;;;;;10.23;100.00;96075.78;4968631;28;19925;-88
2023/05/11 02:03:39;;;;;;;;;;;;;;;10.26;100.00;96066.41;4964050;28;19922;-88
2023/05/11 02:06:08;;;;;;;;;;;;;;;10.29;100.00;96073.22;4962546;28;19922;-86
2023/05/11 02:08:37;;;;;;;;;;;;;;;10.27;100.00;96062.66;4965876;28;19922;-88
2023/05/11 02:11:04;;;;;;;;;;;;;;;10.31;100.00;96063.81;4984576;28;19922;-86
2023/05/11 02:13:34;;;;;;;;;;;;;;;10.33;100.00;96064.41;4969222;28;19938;-86
2023/05/11 02:16:01;;;;;;;;;;;;;;;10.34;100.00;96067.94;4986430;28;19922;-86
2023/05/11 02:18:28;;;;;;;;;;;;;;;10.33;100.00;96069.81;4971412;28;19925;-84
2023/05/11 02:20:58;;;;;;;;;;;;;;;10.31;100.00;96065.69;4985185;28;20006;-87
2023/05/11 02:23:27;;;;;;;;;;;;;;;10.32;100.00;96072.75;4972125;28;19922;-87
2023/05/11 02:25:55;;;;;;;;;;;;;;;10.32;100.00;96076.25;4958746;28;19928;-86
2023/05/11 02:28:23;;;;;;;;;;;;;;;10.31;100.00;96074.63;4985845;28;19957;-87
2023/05/11 02:30:52;;;;;;;;;;;;;;;10.26;100.00;96071.00;4971194;28;19925;-86
2023/05/11 02:33:21;;;;;;;;;;;;;;;10.23;100.00;96074.97;4966014;28;19927;-87
2023/05/11 02:35:50;;;;;;;;;;;;;;;10.12;100.00;96065.78;4976515;28;19949;-86
2023/05/11 02:38:18;;;;;;;;;;;;;;;10.09;100.00;96062.75;4967593;28;19922;-86
2023/05/11 02:40:48;;;;;;;;;;;;;;;10.10;100.00;96069.78;4976048;28;19922;-87
2023/05/11 02:43:20;;;;;;;;;;;;;;;10.13;100.00;96069.31;4980800;28;19993;-87
2023/05/11 02:45:58;;;;;;;;;;;;;;;10.17;100.00;96063.25;4972205;28;19922;-87
2023/05/11 02:48:28;;;;;;;;;;;;;;;10.12;100.00;96068.47;4969504;28;19977;-88
2023/05/11 02:50:55;;;;;;;;;;;;;;;10.08;100.00;96066.50;4962921;28;19922;-86
2023/05/11 02:53:27;;;;;;;;;;;;;;;10.10;100.00;96065.22;4973728;28;19932;-86
2023/05/11 02:55:56;;;;;;;;;;;;;;;10.10;100.00;96061.69;4966953;28;19989;-85
2023/05/11 02:58:23;;;;;;;;;;;;;;;10.10;100.00;96059.00;4963634;28;19922;-86
2023/05/11 03:00:59;;;;;;;;;;;;;;;10.06;100.00;96050.53;4970855;28;19974;-88
2023/05/11 03:03:26;;;;;;;;;;;;;;;10.05;100.00;96056.16;4968502;28;19973;-87
2023/05/11 03:05:53;;;;;;;;;;;;;;;10.05;100.00;96053.47;4970251;28;19922;-87
2023/05/11 03:08:20;;;;;;;;;;;;;;;10.01;100.00;96066.63;4968633;28;19970;-85
2023/05/11 03:10:47;;;;;;;;;;;;;;;9.97;100.00;96056.50;4986502;28;19933;-87
2023/05/11 03:13:15;;;;;;;;;;;;;;;9.90;100.00;96066.59;4984703;28;19951;-86
2023/05/11 03:15:43;;;;;;;;;;;;;;;9.87;100.00;96060.59;4966094;28;19950;-87
2023/05/11 03:18:11;;;;;;;;;;;;;;;9.90;100.00;96069.28;4968404;28;19929;-85
2023/05/11 03:20:39;;;;;;;;;;;;;;;9.87;100.00;96063.31;4980613;28;19954;-86
2023/05/11 03:23:07;;;;;;;;;;;;;;;9.88;100.00;96058.72;4967257;28;19922;-85
2023/05/11 03:25:33;;;;;;;;;;;;;;;9.91;100.00;96055.56;4973567;28;19945;-85
2023/05/11 03:28:01;;;;;;;;;;;;;;;9.84;100.00;96062.97;4965257;28;19961;-85
2023/05/11 03:30:33;;;;;;;;;;;;;;;9.84;100.00;96055.69;4961491;28;19922;-87
2023/05/11 03:33:01;;;;;;;;;;;;;;;9.83;100.00;96064.84;4958113;28;20023;-86
2023/05/11 03:35:29;;;;;;;;;;;;;;;9.84;100.00;96061.09;4967389;28;19930;-86
2023/05/11 03:37:57;;;;;;;;;;;;;;;9.84;100.00;96062.97;4969321;28;19926;-85
2023/05/11 03:40:28;;;;;;;;;;;;;;;9.86;100.00;96058.16;4969980;28;19980;-86
2023/05/11 03:42:57;;;;;;;;;;;;;;;9.85;100.00;96057.34;4963984;28;19929;-87
2023/05/11 03:45:27;;;;;;;;;;;;;;;9.82;100.00;96057.78;4982934;28;19932;-87
2023/05/11 03:47:56;;;;;;;;;;;;;;;9.84;100.00;96058.38;4966684;28;19973;-86
2023/05/11 03:50:23;;;;;;;;;;;;;;;9.81;100.00;96052.63;4968868;28;19922;-86
2023/05/11 03:52:49;;;;;;;;;;;;;;;9.81;100.00;96053.44;4966762;28;19961;-85
2023/05/11 03:55:16;;;;;;;;;;;;;;;9.79;100.00;96058.25;4971627;28;19926;-87
2023/05/11 03:57:43;;;;;;;;;;;;;;;9.77;100.00;96060.38;4965206;28;19973;-87
2023/05/11 04:00:10;;;;;;;;;;;;;;;9.77;100.00;96055.00;4960530;28;19926;-87
2023/05/11 04:02:41;;;;;;;;;;;;;;;9.77;100.00;96059.56;4965927;28;19928;-87
2023/05/11 04:05:11;;;;;;;;;;;;;;;9.77;100.00;96055.00;4969241;28;19981;-85
2023/05/11 04:07:38;;;;;;;;;;;;;;;9.75;100.00;96059.78;4980745;28;19922;-85
2023/05/11 04:10:06;;;;;;;;;;;;;;;9.75;100.00;96056.25;4958588;28;19989;-86
2023/05/11 04:12:32;;;;;;;;;;;;;;;9.75;100.00;96056.25;4966796;28;19922;-87
2023/05/11 04:14:59;;;;;;;;;;;;;;;9.75;100.00;96062.47;4962496;28;19992;-86
2023/05/11 04:17:26;;;;;;;;;;;;;;;9.70;100.00;96056.94;4981365;28;20024;-84
2023/05/11 04:19:54;;;;;;;;;;;;;;;9.70;100.00;96053.44;4969598;28;19921;-85
2023/05/11 04:22:22;;;;;;;;;;;;;;;9.66;100.00;96058.47;4963314;28;19922;-86
2023/05/11 04:24:49;;;;;;;;;;;;;;;9.65;100.00;96056.00;4982772;28;20025;-86
2023/05/11 04:27:16;;;;;;;;;;;;;;;9.57;100.00;96059.84;4965812;28;19928;-88
2023/05/11 04:29:43;;;;;;;;;;;;;;;9.55;100.00;96063.81;4968426;28;20028;-86
2023/05/11 04:32:10;;;;;;;;;;;;;;;9.59;100.00;96056.94;4967226;28;20020;-88
2023/05/11 04:34:37;;;;;;;;;;;;;;;9.64;100.00;96059.75;4970869;28;19922;-88
2023/05/11 04:37:06;;;;;;;;;;;;;;;9.61;100.00;96052.94;4967052;28;19922;-85
2023/05/11 04:39:36;;;;;;;;;;;;;;;9.65;100.00;96064.09;4965610;28;19934;-87
2023/05/11 04:42:03;;;;;;;;;;;;;;;9.60;100.00;96054.00;4964123;28;19937;-87
2023/05/11 04:44:29;;;;;;;;;;;;;;;9.55;100.00;96061.13;4969340;28;19932;-87
2023/05/11 04:46:56;;;;;;;;;;;;;;;9.49;100.00;96058.31;4957315;28;19926;-87
2023/05/11 04:49:23;;;;;;;;;;;;;;;9.46;100.00;96064.16;4957860;28;19922;-87
2023/05/11 04:51:50;;;;;;;;;;;;;;;9.49;100.00;96065.56;4966988;28;19922;-87
2023/05/11 04:54:17;;;;;;;;;;;;;;;9.49;100.00;96063.72;4970832;28;19960;-85
2023/05/11 04:56:45;;;;;;;;;;;;;;;9.52;100.00;96067.81;4967247;28;19926;-84
2023/05/11 04:59:13;;;;;;;;;;;;;;;9.56;100.00;96069.00;4971441;28;19922;-88
2023/05/11 05:01:41;;;;;;;;;;;;;;;9.57;100.00;96067.94;4972005;28;19932;-87
2023/05/11 05:04:08;;;;;;;;;;;;;;;9.62;100.00;96065.38;4966558;28;19922;-87
2023/05/11 05:06:37;;;;;;;;;;;;;;;9.61;100.00;96069.09;4970009;28;19966;-86
2023/05/11 05:09:04;;;;;;;;;;;;;;;9.68;100.00;96071.72;4983343;28;20013;-87
2023/05/11 05:11:31;;;;;;;;;;;;;;;9.68;100.00;96077.94;4966003;28;19946;-86
2023/05/11 05:13:59;;;;;;;;;;;;;;;9.64;100.00;96073.22;4984121;28;20620;-87
2023/05/11 05:16:25;;;;;;;;;;;;;;;9.58;100.00;96066.91;4952268;28;20173;-86
2023/05/11 05:18:52;;;;;;;;;;;;;;;9.61;100.00;96071.81;4978389;28;19930;-87
2023/05/11 05:21:19;;;;;;;;;;;;;;;9.64;100.00;96071.34;4961828;28;19954;-85
2023/05/11 05:23:48;;;;;;;;;;;;;;;9.69;100.00;96068.81;4966488;28;19922;-87
2023/05/11 05:26:15;;;;;;;;;;;;;;;9.70;100.00;96069.59;4968476;28;20033;-87
2023/05/11 05:28:43;;;;;;;;;;;;;;;9.74;100.00;96071.63;4967178;28;19922;-87
2023/05/11 05:31:11;;;;;;;;;;;;;;;9.65;100.00;96067.63;4957117;28;19922;-86
2023/05/11 05:33:38;;;;;;;;;;;;;;;9.57;100.00;96069.81;4960119;28;19985;-86
2023/05/11 05:36:08;;;;;;;;;;;;;;;9.55;100.00;96071.91;4975666;28;19926;-87
2023/05/11 05:38:36;;;;;;;;;;;;;;;9.57;100.00;96073.34;4963863;28;19933;-85
2023/05/11 05:41:03;;;;;;;;;;;;;;;9.60;100.00;96075.59;4968348;28;19934;-86
2023/05/11 05:43:35;;;;;;;;;;;;;;;9.61;100.00;96077.19;4969993;28;19949;-86
2023/05/11 05:46:02;;;;;;;;;;;;;;;9.65;100.00;96072.19;4963938;28;19922;-84
2023/05/11 05:48:31;;;;;;;;;;;;;;;9.65;100.00;96074.88;4978169;28;19922;-87
2023/05/11 05:50:59;;;;;;;;;;;;;;;9.67;100.00;96070.91;4967241;28;20026;-85
2023/05/11 05:53:26;;;;;;;;;;;;;;;9.72;100.00;96078.28;4985250;28;20012;-86
2023/05/11 05:55:52;;;;;;;;;;;;;;;9.70;100.00;96078.50;4970328;28;19977;-86
2023/05/11 05:58:19;;;;;;;;;;;;;;;9.76;100.00;96074.91;4971737;28;19928;-85
2023/05/11 06:00:46;;;;;;;;;;;;;;;9.80;100.00;96078.78;4985899;28;20047;-86
2023/05/11 06:03:13;;;;;;;;;;;;;;;9.79;100.00;96073.59;4968577;28;19997;-86
2023/05/11 06:05:41;;;;;;;;;;;;;;;9.81;100.00;96080.41;4980265;28;19984;-86
2023/05/11 06:08:08;;;;;;;;;;;;;;;9.83;100.00;96081.00;4965847;28;19922;-87
2023/05/11 06:10:34;;;;;;;;;;;;;;;9.76;100.00;96080.31;4985937;28;19930;-87
2023/05/11 06:13:02;;;;;;;;;;;;;;;9.80;100.00;96076.06;4968748;28;19965;-85
2023/05/11 06:15:29;;;;;;;;;;;;;;;9.81;100.00;96075.03;4973088;28;20009;-87
2023/05/11 06:18:01;;;;;;;;;;;;;;;9.87;100.00;96071.38;4985347;28;19930;-86
2023/05/11 06:20:31;;;;;;;;;;;;;;;9.87;100.00;96068.69;4963178;28;19926;-85
2023/05/11 06:22:59;;;;;;;;;;;;;;;9.92;100.00;96062.63;4982104;28;19933;-85
2023/05/11 06:25:26;;;;;;;;;;;;;;;9.81;100.00;96068.81;4979683;28;20031;-86
2023/05/11 06:27:53;;;;;;;;;;;;;;;9.81;100.00;96068.81;4970988;28;19922;-86
2023/05/11 06:30:21;;;;;;;;;;;;;;;9.85;100.00;96061.91;4963349;28;19930;-85
2023/05/11 06:32:50;;;;;;;;;;;;;;;9.94;100.00;96073.19;4966591;28;19922;-84
2023/05/11 06:35:19;;;;;;;;;;;;;;;10.04;100.00;96068.00;4966479;28;19926;-86
2023/05/11 06:37:46;;;;;;;;;;;;;;;10.12;100.00;96062.28;4972884;28;19928;-86
2023/05/11 06:40:15;;;;;;;;;;;;;;;10.15;100.00;96062.63;4968370;28;19929;-84
2023/05/11 06:42:42;;;;;;;;;;;;;;;10.16;100.00;96069.66;4967905;28;20221;-84
2023/05/11 06:45:11;;;;;;;;;;;;;;;10.19;100.00;96065.72;4978183;28;19953;-87
2023/05/11 06:47:41;;;;;;;;;;;;;;;10.19;100.00;96057.63;4978055;28;19977;-85
2023/05/11 06:50:08;;;;;;;;;;;;;;;10.09;100.00;96062.75;4971283;28;19922;-85
2023/05/11 06:52:37;;;;;;;;;;;;;;;10.14;100.00;96060.16;4964975;28;19928;-85
2023/05/11 06:55:07;;;;;;;;;;;;;;;10.21;100.00;96055.50;4961873;28;19929;-85
2023/05/11 06:57:36;;;;;;;;;;;;;;;10.16;100.00;96048.09;4981199;28;19958;-85
2023/05/11 07:00:02;;;;;;;;;;;;;;;10.11;100.00;96053.38;4968235;28;19929;-85
2023/05/11 07:02:31;;;;;;;;;;;;;;;10.11;100.00;96055.25;4954357;28;19985;-86
2023/05/11 07:04:58;;;;;;;;;;;;;;;10.20;100.00;96049.31;4976561;28;19969;-85
2023/05/11 07:07:25;;;;;;;;;;;;;;;10.24;100.00;96053.16;4959765;28;20013;-87
2023/05/11 07:09:51;;;;;;;;;;;;;;;10.25;100.00;96059.38;4980695;28;19922;-86
2023/05/11 07:12:18;;;;;;;;;;;;;;;10.29;100.00;96068.66;4966738;28;19922;-85
2023/05/11 07:14:47;;;;;;;;;;;;;;;10.33;100.00;96069.81;4976506;28;19937;-88
2023/05/11 07:17:15;;;;;;;;;;;;;;;10.37;100.00;96060.22;4969721;28;19944;-84
2023/05/11 07:19:41;;;;;;;;;;;;;;;10.38;100.00;96072.63;4984616;28;19977;-87
2023/05/11 07:22:08;;;;;;;;;;;;;;;10.40;100.00;96070.50;4967467;28;19926;-87
2023/05/11 07:24:35;;;;;;;;;;;;;;;10.42;100.00;96062.19;4969509;28;19984;-85
2023/05/11 07:27:03;;;;;;;;;;;;;;;10.43;100.00;96072.75;4957469;28;19923;-87
2023/05/11 07:29:29;;;;;;;;;;;;;;;10.44;100.00;96060.91;4961712;28;19922;-85
2023/05/11 07:31:58;;;;;;;;;;;;;;;10.39;100.00;96063.47;4984828;28;19955;-87
2023/05/11 07:34:25;;;;;;;;;;;;;;;10.36;100.00;96069.34;4964945;28;19954;-85
2023/05/11 07:36:51;;;;;;;;;;;;;;;10.39;100.00;96070.75;4965239;28;19977;-86
2023/05/11 07:39:18;;;;;;;;;;;;;;;10.35;100.00;96067.72;4957529;28;19921;-88
2023/05/11 07:41:46;;;;;;;;;;;;;;;10.36;100.00;96065.84;4969401;28;19926;-87
2023/05/11 07:44:13;;;;;;;;;;;;;;;10.39;100.00;96063.47;4972270;28;19922;-86
2023/05/11 07:46:40;;;;;;;;;;;;;;;10.41;100.00;96072.16;4975565;28;20013;-87
2023/05/11 07:49:09;;;;;;;;;;;;;;;10.43;100.00;96056.56;4961428;28;19927;-85
2023/05/11 07:51:36;;;;;;;;;;;;;;;10.44;100.00;96055.50;4964456;28;19930;-82
2023/05/11 07:54:03;;;;;;;;;;;;;;;10.47;100.00;96065.81;4958632;28;19922;-88
2023/05/11 07:56:30;;;;;;;;;;;;;;;10.48;100.00;96067.44;4971594;28;19922;-88
2023/05/11 07:58:57;;;;;;;;;;;;;;;10.53;100.00;96067.59;4967279;28;19926;-83
2023/05/11 08:01:24;;;;;;;;;;;;;;;10.56;100.00;96063.56;4965207;28;20004;-84
2023/05/11 08:03:50;;;;;;;;;;;;;;;10.57;100.00;96071.44;4965850;28;19922;-83
2023/05/11 08:06:18;;;;;;;;;;;;;;;10.54;100.00;96071.94;4967699;28;19929;-86
2023/05/11 08:08:45;;;;;;;;;;;;;;;10.55;100.00;96067.31;4964172;28;19997;-87
2023/05/11 08:11:12;;;;;;;;;;;;;;;10.55;100.00;96073.53;4969799;28;19922;-90
2023/05/11 08:13:39;;;;;;;;;;;;;;;10.66;100.00;96073.78;4967267;28;19941;-91
2023/05/11 08:16:07;;;;;;;;;;;;;;;10.70;100.00;96066.84;4968124;28;19922;-86
2023/05/11 08:18:35;;;;;;;;;;;;;;;10.77;100.00;96067.53;4964722;28;19929;-87
2023/05/11 08:21:01;;;;;;;;;;;;;;;10.70;100.00;96073.06;4967100;28;19929;-83
2023/05/11 08:23:30;;;;;;;;;;;;;;;10.68;100.00;96071.66;4974495;28;19996;-84
2023/05/11 08:25:57;;;;;;;;;;;;;;;10.68;100.00;96067.09;4969666;28;19926;-85
2023/05/11 08:28:24;;;;;;;;;;;;;;;10.73;100.00;96069.88;4968216;28;19922;-87
2023/05/11 08:30:55;;;;;;;;;;;;;;;10.70;100.00;96070.38;4968569;28;19922;-86
2023/05/11 08:33:22;;;;;;;;;;;;;;;10.74;100.00;96068.00;4970108;28;19922;-83
2023/05/11 08:35:51;;;;;;;;;;;;;;;10.79;100.00;96068.94;4964917;28;19926;-86
2023/05/11 08:38:18;;;;;;;;;;;;;;;10.83;100.00;96067.41;4969474;28;19922;-83
2023/05/11 08:40:47;;;;;;;;;;;;;;;10.86;100.00;96068.81;4957309;28;19981;-85
2023/05/11 08:43:15;;;;;;;;;;;;;;;10.94;100.00;96065.72;4968009;28;19922;-86
2023/05/11 08:45:43;;;;;;;;;;;;;;;10.95;100.00;96073.59;4968628;28;19989;-86
2023/05/11 08:48:11;;;;;;;;;;;;;;;10.99;100.00;96072.03;4967776;28;20013;-86
2023/05/11 08:50:38;;;;;;;;;;;;;;;11.02;100.00;96067.22;4966660;28;19973;-85
2023/05/11 08:53:05;;;;;;;;;;;;;;;11.09;100.00;96062.50;4984348;28;19921;-87
2023/05/11 08:55:33;;;;;;;;;;;;;;;11.16;100.00;96066.69;4970123;28;20016;-86
2023/05/11 08:58:03;;;;;;;;;;;;;;;11.16;100.00;96058.59;4966375;28;20020;-83
2023/05/11 09:00:31;;;;;;;;;;;;;;;11.31;100.00;96058.09;4970685;28;19932;-83
2023/05/11 09:02:58;;;;;;;;;;;;;;;11.42;100.00;96056.38;4976405;28;19930;-85
2023/05/11 09:05:26;;;;;;;;;;;;;;;11.54;100.00;96051.75;4960100;28;19922;-85
2023/05/11 09:07:55;;;;;;;;;;;;;;;11.62;100.00;96060.28;4957261;28;19922;-85
2023/05/11 09:10:22;;;;;;;;;;;;;;;11.64;100.00;96051.94;4966143;28;20032;-88
2023/05/11 09:12:48;;;;;;;;;;;;;;;11.71;100.00;96053.41;4950982;28;19929;-87
2023/05/11 09:15:17;;;;;;;;;;;;;;;11.78;100.00;96055.16;4972383;28;19980;-88
2023/05/11 09:17:44;;;;;;;;;;;;;;;11.85;100.00;96051.22;4966718;28;19937;-83
2023/05/11 09:20:11;;;;;;;;;;;;;;;12.06;100.00;96044.28;4960269;28;19933;-88
2023/05/11 09:22:42;;;;;;;;;;;;;;;12.26;100.00;96049.97;4958624;28;19922;-85
2023/05/11 09:25:11;;;;;;;;;;;;;;;12.41;100.00;96038.56;4958921;28;19973;-87
2023/05/11 09:27:40;;;;;;;;;;;;;;;12.52;100.00;96048.47;4970105;28;19929;-87
2023/05/11 09:30:11;;;;;;;;;;;;;;;12.54;100.00;96049.03;4980130;28;19929;-87
2023/05/11 09:32:48;;;;;;;;;;;;;;;12.50;100.00;96042.50;4966130;28;19922;-86
2023/05/11 09:35:19;;;;;;;;;;;;;;;12.47;100.00;96037.56;4969019;28;20018;-84
2023/05/11 09:37:56;;;;;;;;;;;;;;;12.43;100.00;96045.34;4966388;28;19922;-88
2023/05/11 09:40:23;;;;;;;;;;;;;;;12.36;100.00;96030.34;4962929;28;19922;-88
2023/05/11 09:42:51;;;;;;;;;;;;;;;12.51;100.00;96035.97;4975387;28;19929;-90
2023/05/11 09:45:34;;;;;;;;;;;;;;;12.52;100.00;96034.91;4965717;28;20027;-86
2023/05/11 09:48:02;;;;;;;;;;;;;;;12.58;100.00;96031.22;4958340;28;19929;-86
2023/05/11 09:50:32;;;;;;;;;;;;;;;12.76;100.00;96030.09;4969931;28;19930;-87
2023/05/11 09:52:59;;;;;;;;;;;;;;;12.77;100.00;96026.31;4966177;28;19970;-88
2023/05/11 09:55:25;;;;;;;;;;;;;;;12.84;100.00;96030.47;4960759;28;19923;-88
2023/05/11 09:57:57;;;;;;;;;;;;;;;12.83;100.00;96023.44;4965614;28;20021;-90
2023/05/11 10:00:25;;;;;;;;;;;;;;;12.73;100.00;96011.63;4959350;28;19929;-86
2023/05/11 10:03:07;;;;;;;;;;;;;;;12.70;100.00;96012.13;4966169;28;20012;-89
2023/05/11 10:05:35;;;;;;;;;;;;;;;12.67;100.00;96008.06;4952987;28;20034;-86
2023/05/11 10:08:03;;;;;;;;;;;;;;;12.69;100.00;96013.19;4969829;28;19922;-85
2023/05/11 10:10:31;;;;;;;;;;;;;;;12.79;100.00;96011.44;4953339;28;19923;-85
2023/05/11 10:12:59;;;;;;;;;;;;;;;12.93;100.00;96005.66;4962375;28;19941;-86
2023/05/11 10:15:29;;;;;;;;;;;;;;;12.98;100.00;96006.53;4956183;28;19922;-87
2023/05/11 10:17:56;;;;;;;;;;;;;;;13.07;100.00;96006.91;4980533;28;19933;-86
2023/05/11 10:20:25;;;;;;;;;;;;;;;13.08;100.00;96005.81;4969856;28;19929;-86
2023/05/11 10:22:54;;;;;;;;;;;;;;;13.14;100.00;95999.41;4962851;28;19922;-86
2023/05/11 10:25:21;;;;;;;;;;;;;;;13.26;100.00;95994.66;4958771;28;20013;-86
2023/05/11 10:27:49;;;;;;;;;;;;;;;13.40;100.00;96003.22;4953053;28;19961;-86
2023/05/11 10:30:15;;;;;;;;;;;;;;;13.54;100.00;95999.81;4964430;28;19922;-87
2023/05/11 10:32:44;;;;;;;;;;;;;;;13.74;100.00;96004.59;4985054;28;19926;-86
2023/05/11 10:35:11;;;;;;;;;;;;;;;13.89;100.00;95988.44;4957611;28;19929;-87
2023/05/11 10:37:40;;;;;;;;;;;;;;;13.87;100.00;95987.06;4965645;28;19969;-87
2023/05/11 10:40:07;;;;;;;;;;;;;;;13.89;100.00;95976.78;4980388;28;19922;-87
2023/05/11 10:42:52;;;;;;;;;;;;;;;13.95;100.00;95983.91;4960553;28;20016;-87
2023/05/11 10:45:22;;;;;;;;;;;;;;;13.96;100.00;95980.06;4968457;28;19937;-86
2023/05/11 10:48:08;;;;;;;;;;;;;;;13.93;100.00;95969.75;4978816;28;20013;-87
2023/05/11 10:50:59;;;;;;;;;;;;;;;13.91;100.00;95969.19;4969128;28;19929;-86
2023/05/11 10:53:41;;;;;;;;;;;;;;;13.81;100.00;95966.41;4949293;28;19926;-87
2023/05/11 10:56:21;;;;;;;;;;;;;;;13.80;100.00;95967.47;4959920;28;19933;-86
2023/05/11 10:58:57;;;;;;;;;;;;;;;13.89;100.00;95963.19;4965677;28;19966;-85
2023/05/11 11:01:38;;;;;;;;;;;;;;;13.91;100.00;95955.63;4960141;28;20013;-86
2023/05/11 11:04:06;;;;;;;;;;;;;;;13.92;100.00;95954.56;4968360;28;19923;-87
2023/05/11 11:06:34;;;;;;;;;;;;;;;13.99;100.00;95952.41;4965655;28;19929;-86
2023/05/11 11:09:03;;;;;;;;;;;;;;;13.99;100.00;95957.84;4967572;28;19937;-86
2023/05/11 11:11:31;;;;;;;;;;;;;;;13.91;99.18;95945.59;4971373;28;19922;-87
2023/05/11 11:14:01;;;;;;;;;;;;;;;13.84;100.00;95949.59;4967118;28;19973;-86
2023/05/11 11:16:28;;;;;;;;;;;;;;;13.82;100.00;95946.31;4966127;28;19980;-85
2023/05/11 11:19:09;;;;;;;;;;;;;;;13.96;100.00;95942.06;4964743;28;19929;-85
2023/05/11 11:21:41;;;;;;;;;;;;;;;14.09;100.00;95941.63;4966131;28;19922;-84
2023/05/11 11:24:29;;;;;;;;;;;;;;;14.16;100.00;95947.66;4966872;28;19965;-84
2023/05/11 11:26:58;;;;;;;;;;;;;;;14.39;99.93;95944.53;4967381;28;19922;-85
2023/05/11 11:29:24;;;;;;;;;;;;;;;14.59;99.22;95940.28;4976521;28;19926;-85
2023/05/11 11:31:51;;;;;;;;;;;;;;;14.50;96.75;95941.88;4967720;28;19928;-85
2023/05/11 11:34:37;;;;;;;;;;;;;;;14.60;99.26;95942.75;4968728;28;19964;-86
2023/05/11 11:37:04;;;;;;;;;;;;;;;14.64;99.54;95937.59;4969608;28;20008;-86
2023/05/11 11:39:46;;;;;;;;;;;;;;;14.66;99.17;95933.53;4982131;28;19922;-85
2023/05/11 11:42:15;;;;;;;;;;;;;;;14.75;98.29;95934.66;4964710;28;19934;-86
2023/05/11 11:44:43;;;;;;;;;;;;;;;14.70;96.12;95931.09;4988699;28;19921;-86
2023/05/11 11:47:10;;;;;;;;;;;;;;;14.74;97.28;95933.00;4956195;28;19926;-86
2023/05/11 11:49:38;;;;;;;;;;;;;;;14.87;95.37;95926.28;4979177;28;19934;-85
2023/05/11 11:52:05;;;;;;;;;;;;;;;15.17;98.83;95919.25;4968541;28;19923;-85
2023/05/11 11:54:38;;;;;;;;;;;;;;;15.38;92.55;95929.09;4960561;28;19947;-85
2023/05/11 11:57:05;;;;;;;;;;;;;;;15.45;94.64;95926.91;4967675;28;19922;-85
2023/05/11 11:59:46;;;;;;;;;;;;;;;15.37;92.56;95920.13;4968098;28;19963;-86
2023/05/11 12:02:17;;;;;;;;;;;;;;;15.26;94.58;95926.63;4959638;28;19962;-86
2023/05/11 12:04:56;;;;;;;;;;;;;;;15.20;92.75;95922.28;4974185;28;19934;-88
2023/05/11 12:07:24;;;;;;;;;;;;;;;15.26;97.83;95928.53;4980764;28;19922;-85
2023/05/11 12:09:52;;;;;;;;;;;;;;;15.23;96.72;95918.16;4964489;28;19922;-86
2023/05/11 12:12:20;;;;;;;;;;;;;;;15.18;94.91;95915.47;4968653;28;19922;-86
2023/05/11 12:14:51;;;;;;;;;;;;;;;15.17;93.02;95925.53;4957800;28;19931;-87
2023/05/11 12:17:26;;;;;;;;;;;;;;;15.19;94.29;95917.91;4965131;28;19925;-86
2023/05/11 12:19:53;;;;;;;;;;;;;;;15.11;97.22;95918.44;4966880;28;19929;-87
2023/05/11 12:22:24;;;;;;;;;;;;;;;15.07;98.10;95918.16;4962636;28;19922;-86
2023/05/11 12:24:55;;;;;;;;;;;;;;;15.12;96.81;95912.75;4964027;28;19922;-86
2023/05/11 12:27:21;;;;;;;;;;;;;;;14.93;98.59;95917.03;4972558;28;19995;-85
2023/05/11 12:29:50;;;;;;;;;;;;;;;14.79;99.72;95915.09;4970253;28;19922;-86
2023/05/11 12:32:25;;;;;;;;;;;;;;;14.74;100.00;95913.16;4964286;28;19961;-85
2023/05/11 12:34:57;;;;;;;;;;;;;;;14.61;100.00;95910.97;4964102;28;19953;-86
2023/05/11 12:37:24;;;;;;;;;;;;;;;14.36;100.00;95904.31;4959295;28;19930;-86
2023/05/11 12:39:54;;;;;;;;;;;;;;;14.22;100.00;95903.13;4963134;28;19982;-85
2023/05/11 12:42:21;;;;;;;;;;;;;;;14.33;100.00;95910.25;4984851;28;19937;-84
2023/05/11 12:44:48;;;;;;;;;;;;;;;14.27;100.00;95903.19;4987093;28;19949;-86
2023/05/11 12:47:16;;;;;;;;;;;;;;;14.35;100.00;95908.13;4980789;28;19922;-84
2023/05/11 12:49:43;;;;;;;;;;;;;;;14.25;100.00;95909.94;4964277;28;19929;-85